sensor_id;sensor_type;location;lat;lon;timestamp;pressure;altitude;pressure_sealevel;temperature
67353;BMP180;54238;52.278;21.056;2022-09-09T00:05:08;100293.20;;;13.20
67353;BMP180;54238;52.278;21.056;2022-09-09T00:07:54;100294.20;;;13.20
67353;BMP180;54238;52.278;21.056;2022-09-09T00:10:38;100288.80;;;13.10
67353;BMP180;54238;52.278;21.056;2022-09-09T00:16:06;100285.40;;;13.06
67353;BMP180;54238;52.278;21.056;2022-09-09T00:30:24;100276.00;;;12.80
67353;BMP180;54238;52.278;21.056;2022-09-09T00:33:10;100268.20;;;12.80
67353;BMP180;54238;52.278;21.056;2022-09-09T00:35:47;100270.00;;;12.74
67353;BMP180;54238;52.278;21.056;2022-09-09T00:38:25;100269.40;;;12.70
67353;BMP180;54238;52.278;21.056;2022-09-09T00:44:37;100261.80;;;12.60
67353;BMP180;54238;52.278;21.056;2022-09-09T00:47:39;100259.60;;;12.60
67353;BMP180;54238;52.278;21.056;2022-09-09T00:50:52;100257.00;;;12.60
67353;BMP180;54238;52.278;21.056;2022-09-09T00:56:59;100249.20;;;12.60
67353;BMP180;54238;52.278;21.056;2022-09-09T00:59:53;100251.20;;;12.56
67353;BMP180;54238;52.278;21.056;2022-09-09T01:02:39;100255.80;;;12.60
67353;BMP180;54238;52.278;21.056;2022-09-09T01:05:24;100250.00;;;12.60
67353;BMP180;54238;52.278;21.056;2022-09-09T01:08:03;100248.40;;;12.60
67353;BMP180;54238;52.278;21.056;2022-09-09T01:10:59;100256.80;;;12.60
67353;BMP180;54238;52.278;21.056;2022-09-09T01:13:33;100257.60;;;12.60
67353;BMP180;54238;52.278;21.056;2022-09-09T01:16:08;100261.60;;;12.60
67353;BMP180;54238;52.278;21.056;2022-09-09T01:18:48;100261.60;;;12.60
67353;BMP180;54238;52.278;21.056;2022-09-09T01:21:54;100257.80;;;12.60
67353;BMP180;54238;52.278;21.056;2022-09-09T01:27:35;100251.80;;;12.52
67353;BMP180;54238;52.278;21.056;2022-09-09T01:30:16;100254.00;;;12.60
67353;BMP180;54238;52.278;21.056;2022-09-09T01:32:54;100251.40;;;12.60
67353;BMP180;54238;52.278;21.056;2022-09-09T01:35:56;100247.40;;;12.58
67353;BMP180;54238;52.278;21.056;2022-09-09T01:38:25;100236.40;;;12.60
67353;BMP180;54238;52.278;21.056;2022-09-09T01:40:55;100239.40;;;12.60
67353;BMP180;54238;52.278;21.056;2022-09-09T01:43:23;100233.80;;;12.60
67353;BMP180;54238;52.278;21.056;2022-09-09T01:45:56;100237.00;;;12.60
67353;BMP180;54238;52.278;21.056;2022-09-09T01:48:27;100241.00;;;12.60
67353;BMP180;54238;52.278;21.056;2022-09-09T01:50:59;100244.20;;;12.60
67353;BMP180;54238;52.278;21.056;2022-09-09T01:53:29;100240.00;;;12.60
67353;BMP180;54238;52.278;21.056;2022-09-09T01:56:11;100240.60;;;12.58
67353;BMP180;54238;52.278;21.056;2022-09-09T01:58:55;100241.20;;;12.60
67353;BMP180;54238;52.278;21.056;2022-09-09T02:04:43;100239.40;;;12.58
67353;BMP180;54238;52.278;21.056;2022-09-09T02:10:28;100238.20;;;12.60
67353;BMP180;54238;52.278;21.056;2022-09-09T02:13:17;100240.40;;;12.60
67353;BMP180;54238;52.278;21.056;2022-09-09T02:16:00;100245.60;;;12.60
67353;BMP180;54238;52.278;21.056;2022-09-09T02:18:43;100240.40;;;12.60
67353;BMP180;54238;52.278;21.056;2022-09-09T02:21:14;100235.20;;;12.60
67353;BMP180;54238;52.278;21.056;2022-09-09T02:23:47;100235.00;;;12.60
67353;BMP180;54238;52.278;21.056;2022-09-09T02:26:19;100230.20;;;12.60
67353;BMP180;54238;52.278;21.056;2022-09-09T02:28:55;100229.40;;;12.62
67353;BMP180;54238;52.278;21.056;2022-09-09T02:31:25;100230.00;;;12.60
67353;BMP180;54238;52.278;21.056;2022-09-09T02:34:02;100228.80;;;12.60
67353;BMP180;54238;52.278;21.056;2022-09-09T02:36:33;100226.60;;;12.70
67353;BMP180;54238;52.278;21.056;2022-09-09T02:39:13;100229.60;;;12.70
67353;BMP180;54238;52.278;21.056;2022-09-09T02:41:42;100231.00;;;12.70
67353;BMP180;54238;52.278;21.056;2022-09-09T02:50:32;100237.60;;;12.64
67353;BMP180;54238;52.278;21.056;2022-09-09T02:53:20;100233.80;;;12.70
67353;BMP180;54238;52.278;21.056;2022-09-09T02:56:04;100237.40;;;12.70
67353;BMP180;54238;52.278;21.056;2022-09-09T02:58:35;100238.20;;;12.70
67353;BMP180;54238;52.278;21.056;2022-09-09T03:01:12;100240.00;;;12.70
67353;BMP180;54238;52.278;21.056;2022-09-09T03:03:39;100239.00;;;12.70
67353;BMP180;54238;52.278;21.056;2022-09-09T03:06:09;100245.60;;;12.70
67353;BMP180;54238;52.278;21.056;2022-09-09T03:08:37;100248.00;;;12.70
67353;BMP180;54238;52.278;21.056;2022-09-09T03:11:12;100246.40;;;12.76
67353;BMP180;54238;52.278;21.056;2022-09-09T03:13:40;100240.00;;;12.80
67353;BMP180;54238;52.278;21.056;2022-09-09T03:16:12;100245.20;;;12.80
67353;BMP180;54238;52.278;21.056;2022-09-09T03:18:41;100238.20;;;12.80
67353;BMP180;54238;52.278;21.056;2022-09-09T03:21:14;100235.80;;;12.80
67353;BMP180;54238;52.278;21.056;2022-09-09T03:23:41;100228.40;;;12.80
67353;BMP180;54238;52.278;21.056;2022-09-09T03:26:08;100227.40;;;12.80
67353;BMP180;54238;52.278;21.056;2022-09-09T03:28:37;100222.80;;;12.80
67353;BMP180;54238;52.278;21.056;2022-09-09T03:31:06;100228.20;;;12.80
67353;BMP180;54238;52.278;21.056;2022-09-09T03:33:39;100226.80;;;12.80
67353;BMP180;54238;52.278;21.056;2022-09-09T03:36:11;100223.60;;;12.80
67353;BMP180;54238;52.278;21.056;2022-09-09T03:38:41;100223.40;;;12.80
67353;BMP180;54238;52.278;21.056;2022-09-09T03:41:09;100217.20;;;12.80
67353;BMP180;54238;52.278;21.056;2022-09-09T03:43:39;100221.60;;;12.80
67353;BMP180;54238;52.278;21.056;2022-09-09T03:46:10;100218.20;;;12.80
67353;BMP180;54238;52.278;21.056;2022-09-09T03:48:39;100222.20;;;12.80
67353;BMP180;54238;52.278;21.056;2022-09-09T03:51:07;100221.40;;;12.86
67353;BMP180;54238;52.278;21.056;2022-09-09T03:53:34;100225.00;;;12.84
67353;BMP180;54238;52.278;21.056;2022-09-09T03:56:06;100229.00;;;12.82
67353;BMP180;54238;52.278;21.056;2022-09-09T03:58:38;100225.20;;;12.90
67353;BMP180;54238;52.278;21.056;2022-09-09T04:01:12;100227.40;;;12.90
67353;BMP180;54238;52.278;21.056;2022-09-09T04:03:44;100231.60;;;12.90
67353;BMP180;54238;52.278;21.056;2022-09-09T04:06:14;100234.60;;;12.90
67353;BMP180;54238;52.278;21.056;2022-09-09T04:08:49;100232.20;;;12.90
67353;BMP180;54238;52.278;21.056;2022-09-09T04:11:24;100230.60;;;12.90
67353;BMP180;54238;52.278;21.056;2022-09-09T04:13:58;100232.20;;;12.90
67353;BMP180;54238;52.278;21.056;2022-09-09T04:16:27;100231.60;;;12.90
67353;BMP180;54238;52.278;21.056;2022-09-09T04:18:57;100230.20;;;13.00
67353;BMP180;54238;52.278;21.056;2022-09-09T04:21:30;100227.80;;;13.00
67353;BMP180;54238;52.278;21.056;2022-09-09T04:24:02;100224.40;;;13.00
67353;BMP180;54238;52.278;21.056;2022-09-09T04:26:29;100226.40;;;13.00
67353;BMP180;54238;52.278;21.056;2022-09-09T04:28:59;100224.80;;;13.00
67353;BMP180;54238;52.278;21.056;2022-09-09T04:31:26;100227.80;;;13.00
67353;BMP180;54238;52.278;21.056;2022-09-09T04:33:55;100225.60;;;13.00
67353;BMP180;54238;52.278;21.056;2022-09-09T04:36:25;100226.20;;;13.00
67353;BMP180;54238;52.278;21.056;2022-09-09T04:38:54;100224.40;;;13.00
67353;BMP180;54238;52.278;21.056;2022-09-09T04:41:24;100226.20;;;13.00
67353;BMP180;54238;52.278;21.056;2022-09-09T04:43:54;100224.60;;;13.00
67353;BMP180;54238;52.278;21.056;2022-09-09T04:46:23;100228.40;;;13.00
67353;BMP180;54238;52.278;21.056;2022-09-09T04:48:51;100230.00;;;13.00
67353;BMP180;54238;52.278;21.056;2022-09-09T04:51:19;100228.20;;;13.00
67353;BMP180;54238;52.278;21.056;2022-09-09T04:53:49;100232.20;;;13.00
67353;BMP180;54238;52.278;21.056;2022-09-09T04:56:22;100239.80;;;13.00
67353;BMP180;54238;52.278;21.056;2022-09-09T04:58:53;100244.00;;;13.00
67353;BMP180;54238;52.278;21.056;2022-09-09T05:01:25;100245.40;;;13.00
67353;BMP180;54238;52.278;21.056;2022-09-09T05:03:55;100248.20;;;13.00
67353;BMP180;54238;52.278;21.056;2022-09-09T05:06:26;100244.40;;;13.04
67353;BMP180;54238;52.278;21.056;2022-09-09T05:09:02;100244.40;;;13.10
67353;BMP180;54238;52.278;21.056;2022-09-09T05:11:33;100244.00;;;13.08
67353;BMP180;54238;52.278;21.056;2022-09-09T05:14:08;100252.20;;;13.06
67353;BMP180;54238;52.278;21.056;2022-09-09T05:16:41;100254.60;;;13.10
67353;BMP180;54238;52.278;21.056;2022-09-09T05:19:11;100255.00;;;13.10
67353;BMP180;54238;52.278;21.056;2022-09-09T05:21:39;100253.60;;;13.10
67353;BMP180;54238;52.278;21.056;2022-09-09T05:24:08;100252.80;;;13.10
67353;BMP180;54238;52.278;21.056;2022-09-09T05:26:37;100246.80;;;13.10
67353;BMP180;54238;52.278;21.056;2022-09-09T05:29:11;100252.60;;;13.10
67353;BMP180;54238;52.278;21.056;2022-09-09T05:31:43;100251.00;;;13.10
67353;BMP180;54238;52.278;21.056;2022-09-09T05:34:10;100250.40;;;13.10
67353;BMP180;54238;52.278;21.056;2022-09-09T05:36:40;100250.20;;;13.10
67353;BMP180;54238;52.278;21.056;2022-09-09T05:39:07;100252.20;;;13.10
67353;BMP180;54238;52.278;21.056;2022-09-09T05:41:34;100251.20;;;13.10
67353;BMP180;54238;52.278;21.056;2022-09-09T05:44:04;100254.40;;;13.12
67353;BMP180;54238;52.278;21.056;2022-09-09T05:46:35;100252.20;;;13.12
67353;BMP180;54238;52.278;21.056;2022-09-09T05:49:02;100252.20;;;13.16
67353;BMP180;54238;52.278;21.056;2022-09-09T05:51:33;100249.20;;;13.14
67353;BMP180;54238;52.278;21.056;2022-09-09T05:54:00;100249.00;;;13.20
67353;BMP180;54238;52.278;21.056;2022-09-09T05:56:30;100248.00;;;13.20
67353;BMP180;54238;52.278;21.056;2022-09-09T05:58:57;100251.00;;;13.20
67353;BMP180;54238;52.278;21.056;2022-09-09T06:01:31;100252.40;;;13.20
67353;BMP180;54238;52.278;21.056;2022-09-09T06:04:03;100253.00;;;13.20
67353;BMP180;54238;52.278;21.056;2022-09-09T06:06:38;100256.00;;;13.20
67353;BMP180;54238;52.278;21.056;2022-09-09T06:09:11;100257.80;;;13.20
67353;BMP180;54238;52.278;21.056;2022-09-09T06:11:39;100261.20;;;13.24
67353;BMP180;54238;52.278;21.056;2022-09-09T06:14:10;100258.60;;;13.28
67353;BMP180;54238;52.278;21.056;2022-09-09T06:16:42;100263.00;;;13.24
67353;BMP180;54238;52.278;21.056;2022-09-09T06:19:11;100265.20;;;13.30
67353;BMP180;54238;52.278;21.056;2022-09-09T06:21:41;100265.00;;;13.30
67353;BMP180;54238;52.278;21.056;2022-09-09T06:24:11;100269.80;;;13.32
67353;BMP180;54238;52.278;21.056;2022-09-09T06:26:46;100269.20;;;13.38
67353;BMP180;54238;52.278;21.056;2022-09-09T06:29:17;100270.20;;;13.40
67353;BMP180;54238;52.278;21.056;2022-09-09T06:31:47;100273.60;;;13.40
67353;BMP180;54238;52.278;21.056;2022-09-09T06:34:21;100274.60;;;13.40
67353;BMP180;54238;52.278;21.056;2022-09-09T06:36:48;100279.20;;;13.40
67353;BMP180;54238;52.278;21.056;2022-09-09T06:39:18;100276.80;;;13.42
67353;BMP180;54238;52.278;21.056;2022-09-09T06:41:52;100277.80;;;13.42
67353;BMP180;54238;52.278;21.056;2022-09-09T06:44:22;100275.20;;;13.50
67353;BMP180;54238;52.278;21.056;2022-09-09T06:46:56;100273.20;;;13.50
67353;BMP180;54238;52.278;21.056;2022-09-09T06:49:25;100275.60;;;13.50
67353;BMP180;54238;52.278;21.056;2022-09-09T06:51:52;100281.20;;;13.50
67353;BMP180;54238;52.278;21.056;2022-09-09T06:54:24;100279.00;;;13.50
67353;BMP180;54238;52.278;21.056;2022-09-09T06:56:53;100282.80;;;13.52
67353;BMP180;54238;52.278;21.056;2022-09-09T06:59:20;100285.40;;;13.60
67353;BMP180;54238;52.278;21.056;2022-09-09T07:01:52;100286.20;;;13.60
67353;BMP180;54238;52.278;21.056;2022-09-09T07:04:23;100291.00;;;13.66
67353;BMP180;54238;52.278;21.056;2022-09-09T07:06:50;100289.60;;;13.70
67353;BMP180;54238;52.278;21.056;2022-09-09T07:09:22;100289.60;;;13.70
67353;BMP180;54238;52.278;21.056;2022-09-09T07:11:52;100288.60;;;13.70
67353;BMP180;54238;52.278;21.056;2022-09-09T07:14:24;100292.20;;;13.76
67353;BMP180;54238;52.278;21.056;2022-09-09T07:16:51;100290.40;;;13.70
67353;BMP180;54238;52.278;21.056;2022-09-09T07:19:20;100292.20;;;13.70
67353;BMP180;54238;52.278;21.056;2022-09-09T07:21:49;100296.00;;;13.72
67353;BMP180;54238;52.278;21.056;2022-09-09T07:24:17;100295.60;;;13.74
67353;BMP180;54238;52.278;21.056;2022-09-09T07:26:48;100297.60;;;13.80
67353;BMP180;54238;52.278;21.056;2022-09-09T07:29:17;100302.60;;;13.80
67353;BMP180;54238;52.278;21.056;2022-09-09T07:31:44;100304.60;;;13.82
67353;BMP180;54238;52.278;21.056;2022-09-09T07:34:11;100307.60;;;13.90
67353;BMP180;54238;52.278;21.056;2022-09-09T07:36:42;100306.80;;;13.90
67353;BMP180;54238;52.278;21.056;2022-09-09T07:39:12;100310.20;;;13.90
67353;BMP180;54238;52.278;21.056;2022-09-09T07:41:47;100310.40;;;13.90
67353;BMP180;54238;52.278;21.056;2022-09-09T07:44:21;100310.40;;;13.90
67353;BMP180;54238;52.278;21.056;2022-09-09T07:46:51;100312.20;;;13.90
67353;BMP180;54238;52.278;21.056;2022-09-09T07:49:20;100312.20;;;13.90
67353;BMP180;54238;52.278;21.056;2022-09-09T07:51:50;100314.80;;;13.94
67353;BMP180;54238;52.278;21.056;2022-09-09T07:54:19;100312.00;;;14.00
67353;BMP180;54238;52.278;21.056;2022-09-09T07:56:52;100314.40;;;14.00
67353;BMP180;54238;52.278;21.056;2022-09-09T07:59:22;100320.20;;;14.02
67353;BMP180;54238;52.278;21.056;2022-09-09T08:01:52;100322.60;;;14.10
67353;BMP180;54238;52.278;21.056;2022-09-09T08:04:26;100320.40;;;14.10
67353;BMP180;54238;52.278;21.056;2022-09-09T08:07:01;100327.20;;;14.10
67353;BMP180;54238;52.278;21.056;2022-09-09T08:09:30;100327.60;;;14.12
67353;BMP180;54238;52.278;21.056;2022-09-09T08:12:05;100333.40;;;14.20
67353;BMP180;54238;52.278;21.056;2022-09-09T08:14:33;100335.80;;;14.20
67353;BMP180;54238;52.278;21.056;2022-09-09T08:17:06;100340.40;;;14.20
67353;BMP180;54238;52.278;21.056;2022-09-09T08:19:36;100344.00;;;14.20
67353;BMP180;54238;52.278;21.056;2022-09-09T08:22:08;100343.60;;;14.20
67353;BMP180;54238;52.278;21.056;2022-09-09T08:24:42;100344.00;;;14.20
67353;BMP180;54238;52.278;21.056;2022-09-09T08:27:14;100350.00;;;14.20
67353;BMP180;54238;52.278;21.056;2022-09-09T08:29:46;100349.80;;;14.20
67353;BMP180;54238;52.278;21.056;2022-09-09T08:32:13;100350.00;;;14.22
67353;BMP180;54238;52.278;21.056;2022-09-09T08:34:45;100350.60;;;14.30
67353;BMP180;54238;52.278;21.056;2022-09-09T08:37:16;100352.00;;;14.30
67353;BMP180;54238;52.278;21.056;2022-09-09T08:39:48;100354.80;;;14.30
67353;BMP180;54238;52.278;21.056;2022-09-09T08:42:49;100357.00;;;14.30
67353;BMP180;54238;52.278;21.056;2022-09-09T08:45:25;100358.60;;;14.20
67353;BMP180;54238;52.278;21.056;2022-09-09T08:48:17;100357.20;;;14.30
67353;BMP180;54238;52.278;21.056;2022-09-09T08:50:52;100360.20;;;14.30
67353;BMP180;54238;52.278;21.056;2022-09-09T08:53:24;100358.20;;;14.30
67353;BMP180;54238;52.278;21.056;2022-09-09T08:56:20;100363.20;;;14.30
67353;BMP180;54238;52.278;21.056;2022-09-09T08:58:54;100364.00;;;14.40
67353;BMP180;54238;52.278;21.056;2022-09-09T09:10:46;100357.60;;;14.50
67353;BMP180;54238;52.278;21.056;2022-09-09T09:16:29;100369.80;;;14.50
67353;BMP180;54238;52.278;21.056;2022-09-09T09:19:02;100370.00;;;14.50
67353;BMP180;54238;52.278;21.056;2022-09-09T09:24:27;100382.60;;;14.60
67353;BMP180;54238;52.278;21.056;2022-09-09T09:27:35;100384.00;;;14.60
67353;BMP180;54238;52.278;21.056;2022-09-09T09:30:18;100384.20;;;14.70
67353;BMP180;54238;52.278;21.056;2022-09-09T09:32:59;100386.60;;;14.70
67353;BMP180;54238;52.278;21.056;2022-09-09T09:35:28;100386.40;;;14.70
67353;BMP180;54238;52.278;21.056;2022-09-09T09:37:55;100385.60;;;14.70
67353;BMP180;54238;52.278;21.056;2022-09-09T09:40:26;100389.80;;;14.70
67353;BMP180;54238;52.278;21.056;2022-09-09T09:43:00;100389.20;;;14.70
67353;BMP180;54238;52.278;21.056;2022-09-09T09:45:43;100387.80;;;14.70
67353;BMP180;54238;52.278;21.056;2022-09-09T09:48:19;100393.60;;;14.70
67353;BMP180;54238;52.278;21.056;2022-09-09T09:51:11;100398.40;;;14.70
67353;BMP180;54238;52.278;21.056;2022-09-09T09:53:43;100395.80;;;14.70
67353;BMP180;54238;52.278;21.056;2022-09-09T09:56:14;100395.60;;;14.76
67353;BMP180;54238;52.278;21.056;2022-09-09T09:58:51;100391.20;;;14.80
67353;BMP180;54238;52.278;21.056;2022-09-09T10:01:31;100389.80;;;14.80
67353;BMP180;54238;52.278;21.056;2022-09-09T10:04:15;100389.60;;;14.80
67353;BMP180;54238;52.278;21.056;2022-09-09T10:06:50;100387.40;;;14.90
67353;BMP180;54238;52.278;21.056;2022-09-09T10:09:30;100387.20;;;14.90
67353;BMP180;54238;52.278;21.056;2022-09-09T10:27:23;100404.40;;;15.04
67353;BMP180;54238;52.278;21.056;2022-09-09T10:33:07;100412.20;;;15.10
67353;BMP180;54238;52.278;21.056;2022-09-09T10:42:15;100424.00;;;15.00
67353;BMP180;54238;52.278;21.056;2022-09-09T10:45:18;100430.80;;;15.06
67353;BMP180;54238;52.278;21.056;2022-09-09T10:51:07;100440.40;;;15.00
67353;BMP180;54238;52.278;21.056;2022-09-09T10:53:52;100444.60;;;15.00
67353;BMP180;54238;52.278;21.056;2022-09-09T10:56:24;100454.20;;;15.10
67353;BMP180;54238;52.278;21.056;2022-09-09T11:04:10;100451.80;;;15.10
67353;BMP180;54238;52.278;21.056;2022-09-09T11:06:54;100457.00;;;15.20
67353;BMP180;54238;52.278;21.056;2022-09-09T11:09:32;100458.80;;;15.20
67353;BMP180;54238;52.278;21.056;2022-09-09T11:12:03;100460.00;;;15.20
67353;BMP180;54238;52.278;21.056;2022-09-09T11:14:46;100458.00;;;15.16
67353;BMP180;54238;52.278;21.056;2022-09-09T11:17:40;100467.00;;;15.10
67353;BMP180;54238;52.278;21.056;2022-09-09T11:20:16;100465.80;;;15.10
67353;BMP180;54238;52.278;21.056;2022-09-09T11:23:10;100472.60;;;15.10
67353;BMP180;54238;52.278;21.056;2022-09-09T11:25:49;100467.60;;;15.20
67353;BMP180;54238;52.278;21.056;2022-09-09T11:28:59;100472.20;;;15.20
67353;BMP180;54238;52.278;21.056;2022-09-09T11:34:49;100469.40;;;15.20
67353;BMP180;54238;52.278;21.056;2022-09-09T11:38:14;100469.60;;;15.20
67353;BMP180;54238;52.278;21.056;2022-09-09T11:40:45;100472.20;;;15.20
67353;BMP180;54238;52.278;21.056;2022-09-09T11:46:00;100472.20;;;15.30
67353;BMP180;54238;52.278;21.056;2022-09-09T11:48:43;100467.60;;;15.30
67353;BMP180;54238;52.278;21.056;2022-09-09T11:53:52;100464.00;;;15.40
67353;BMP180;54238;52.278;21.056;2022-09-09T11:56:41;100466.40;;;15.50
67353;BMP180;54238;52.278;21.056;2022-09-09T11:59:50;100470.20;;;15.54
67353;BMP180;54238;52.278;21.056;2022-09-09T12:02:25;100469.80;;;15.60
67353;BMP180;54238;52.278;21.056;2022-09-09T12:05:09;100461.20;;;15.70
67353;BMP180;54238;52.278;21.056;2022-09-09T12:07:41;100466.40;;;15.70
67353;BMP180;54238;52.278;21.056;2022-09-09T12:10:35;100475.00;;;15.70
67353;BMP180;54238;52.278;21.056;2022-09-09T12:13:17;100472.80;;;15.74
67353;BMP180;54238;52.278;21.056;2022-09-09T12:15:56;100467.40;;;15.80
67353;BMP180;54238;52.278;21.056;2022-09-09T12:18:31;100471.00;;;15.78
67353;BMP180;54238;52.278;21.056;2022-09-09T12:24:22;100475.60;;;15.70
67353;BMP180;54238;52.278;21.056;2022-09-09T12:27:21;100477.60;;;15.80
67353;BMP180;54238;52.278;21.056;2022-09-09T12:30:08;100480.80;;;15.76
67353;BMP180;54238;52.278;21.056;2022-09-09T12:32:37;100483.80;;;15.70
67353;BMP180;54238;52.278;21.056;2022-09-09T12:35:20;100482.80;;;15.70
67353;BMP180;54238;52.278;21.056;2022-09-09T12:37:58;100483.20;;;15.70
67353;BMP180;54238;52.278;21.056;2022-09-09T12:40:34;100482.00;;;15.70
67353;BMP180;54238;52.278;21.056;2022-09-09T12:43:21;100485.40;;;15.70
67353;BMP180;54238;52.278;21.056;2022-09-09T12:46:03;100482.40;;;15.62
67353;BMP180;54238;52.278;21.056;2022-09-09T12:48:44;100477.20;;;15.60
67353;BMP180;54238;52.278;21.056;2022-09-09T12:51:27;100474.20;;;15.64
67353;BMP180;54238;52.278;21.056;2022-09-09T12:53:56;100475.40;;;15.70
67353;BMP180;54238;52.278;21.056;2022-09-09T12:56:31;100472.40;;;15.70
67353;BMP180;54238;52.278;21.056;2022-09-09T12:59:01;100469.40;;;15.70
67353;BMP180;54238;52.278;21.056;2022-09-09T13:01:35;100465.60;;;15.70
67353;BMP180;54238;52.278;21.056;2022-09-09T13:04:15;100466.60;;;15.70
67353;BMP180;54238;52.278;21.056;2022-09-09T13:06:53;100463.20;;;15.70
67353;BMP180;54238;52.278;21.056;2022-09-09T13:09:24;100463.60;;;15.70
67353;BMP180;54238;52.278;21.056;2022-09-09T13:11:58;100470.20;;;15.70
67353;BMP180;54238;52.278;21.056;2022-09-09T13:14:34;100468.80;;;15.70
67353;BMP180;54238;52.278;21.056;2022-09-09T13:17:17;100471.80;;;15.66
67353;BMP180;54238;52.278;21.056;2022-09-09T13:19:48;100476.80;;;15.60
67353;BMP180;54238;52.278;21.056;2022-09-09T13:22:36;100471.00;;;15.60
67353;BMP180;54238;52.278;21.056;2022-09-09T13:27:50;100465.80;;;15.60
67353;BMP180;54238;52.278;21.056;2022-09-09T13:30:22;100471.20;;;15.60
67353;BMP180;54238;52.278;21.056;2022-09-09T13:35:57;100457.60;;;15.60
67353;BMP180;54238;52.278;21.056;2022-09-09T13:38:29;100457.00;;;15.60
67353;BMP180;54238;52.278;21.056;2022-09-09T13:41:06;100460.20;;;15.60
67353;BMP180;54238;52.278;21.056;2022-09-09T13:43:44;100458.60;;;15.50
67353;BMP180;54238;52.278;21.056;2022-09-09T13:51:50;100460.60;;;15.50
67353;BMP180;54238;52.278;21.056;2022-09-09T13:54:23;100462.00;;;15.50
67353;BMP180;54238;52.278;21.056;2022-09-09T13:56:52;100459.60;;;15.50
67353;BMP180;54238;52.278;21.056;2022-09-09T13:59:23;100458.60;;;15.50
67353;BMP180;54238;52.278;21.056;2022-09-09T14:01:57;100466.80;;;15.48
67353;BMP180;54238;52.278;21.056;2022-09-09T14:04:28;100464.40;;;15.40
67353;BMP180;54238;52.278;21.056;2022-09-09T14:06:57;100468.60;;;15.40
67353;BMP180;54238;52.278;21.056;2022-09-09T14:09:28;100467.80;;;15.40
67353;BMP180;54238;52.278;21.056;2022-09-09T14:11:59;100472.20;;;15.40
67353;BMP180;54238;52.278;21.056;2022-09-09T14:14:27;100480.20;;;15.40
67353;BMP180;54238;52.278;21.056;2022-09-09T14:16:54;100482.20;;;15.48
67353;BMP180;54238;52.278;21.056;2022-09-09T14:19:23;100476.20;;;15.50
67353;BMP180;54238;52.278;21.056;2022-09-09T14:21:53;100478.20;;;15.40
67353;BMP180;54238;52.278;21.056;2022-09-09T14:24:20;100479.20;;;15.40
67353;BMP180;54238;52.278;21.056;2022-09-09T14:26:47;100482.60;;;15.40
67353;BMP180;54238;52.278;21.056;2022-09-09T14:29:14;100480.00;;;15.40
67353;BMP180;54238;52.278;21.056;2022-09-09T14:31:41;100476.60;;;15.50
67353;BMP180;54238;52.278;21.056;2022-09-09T14:34:08;100479.80;;;15.50
67353;BMP180;54238;52.278;21.056;2022-09-09T14:36:40;100488.60;;;15.50
67353;BMP180;54238;52.278;21.056;2022-09-09T14:39:11;100491.40;;;15.50
67353;BMP180;54238;52.278;21.056;2022-09-09T14:41:40;100485.60;;;15.50
67353;BMP180;54238;52.278;21.056;2022-09-09T14:44:12;100481.80;;;15.50
67353;BMP180;54238;52.278;21.056;2022-09-09T14:46:39;100477.20;;;15.60
67353;BMP180;54238;52.278;21.056;2022-09-09T14:49:09;100473.60;;;15.60
67353;BMP180;54238;52.278;21.056;2022-09-09T14:51:39;100472.20;;;15.60
67353;BMP180;54238;52.278;21.056;2022-09-09T14:54:08;100475.40;;;15.70
67353;BMP180;54238;52.278;21.056;2022-09-09T14:56:40;100477.00;;;15.70
67353;BMP180;54238;52.278;21.056;2022-09-09T14:59:09;100480.60;;;15.72
67353;BMP180;54238;52.278;21.056;2022-09-09T15:01:39;100487.00;;;15.74
67353;BMP180;54238;52.278;21.056;2022-09-09T15:04:10;100492.60;;;15.70
67353;BMP180;54238;52.278;21.056;2022-09-09T15:06:40;100490.60;;;15.70
67353;BMP180;54238;52.278;21.056;2022-09-09T15:09:14;100483.60;;;15.70
67353;BMP180;54238;52.278;21.056;2022-09-09T15:11:44;100485.60;;;15.70
67353;BMP180;54238;52.278;21.056;2022-09-09T15:14:16;100485.80;;;15.78
67353;BMP180;54238;52.278;21.056;2022-09-09T15:16:44;100477.80;;;15.76
67353;BMP180;54238;52.278;21.056;2022-09-09T15:19:18;100476.60;;;15.70
67353;BMP180;54238;52.278;21.056;2022-09-09T15:21:48;100473.80;;;15.70
67353;BMP180;54238;52.278;21.056;2022-09-09T15:24:19;100474.80;;;15.70
67353;BMP180;54238;52.278;21.056;2022-09-09T15:26:52;100478.00;;;15.70
67353;BMP180;54238;52.278;21.056;2022-09-09T15:29:21;100481.00;;;15.72
67353;BMP180;54238;52.278;21.056;2022-09-09T15:31:48;100482.20;;;15.72
67353;BMP180;54238;52.278;21.056;2022-09-09T15:34:17;100483.40;;;15.70
67353;BMP180;54238;52.278;21.056;2022-09-09T15:36:52;100483.40;;;15.70
67353;BMP180;54238;52.278;21.056;2022-09-09T15:39:24;100487.00;;;15.72
67353;BMP180;54238;52.278;21.056;2022-09-09T15:41:51;100494.20;;;15.70
67353;BMP180;54238;52.278;21.056;2022-09-09T15:44:20;100500.00;;;15.70
67353;BMP180;54238;52.278;21.056;2022-09-09T15:46:55;100498.40;;;15.70
67353;BMP180;54238;52.278;21.056;2022-09-09T15:49:26;100495.00;;;15.70
67353;BMP180;54238;52.278;21.056;2022-09-09T15:52:02;100497.40;;;15.70
67353;BMP180;54238;52.278;21.056;2022-09-09T15:54:35;100497.60;;;15.70
67353;BMP180;54238;52.278;21.056;2022-09-09T15:57:09;100500.20;;;15.60
67353;BMP180;54238;52.278;21.056;2022-09-09T15:59:42;100494.00;;;15.60
67353;BMP180;54238;52.278;21.056;2022-09-09T16:02:16;100488.60;;;15.60
67353;BMP180;54238;52.278;21.056;2022-09-09T16:04:45;100487.60;;;15.60
67353;BMP180;54238;52.278;21.056;2022-09-09T16:07:16;100493.20;;;15.60
67353;BMP180;54238;52.278;21.056;2022-09-09T16:09:49;100491.00;;;15.60
67353;BMP180;54238;52.278;21.056;2022-09-09T16:12:23;100481.80;;;15.58
67353;BMP180;54238;52.278;21.056;2022-09-09T16:14:52;100480.00;;;15.50
67353;BMP180;54238;52.278;21.056;2022-09-09T16:17:21;100479.60;;;15.50